Terminal Aerodrome Forecast
Issued by NWS

Home | Current Version | Previous Version | Text Only | Print | Product List | Glossary On
Versions: 1 2 3 4 5 6 7 8 9 10 11 12 13
529
FTUS42 KILM 121134
TAFCRE
TAF
KCRE 121134Z 1212/1312 05008KT P6SM OVC040
     FM121600 03007KT 6SM -RA BR SCT007 OVC015
     FM121800 33006KT 4SM -RA BR BKN010
     FM130100 29004KT P6SM FEW007 SCT025
     FM130900 34006KT P6SM SCT250=

USA.gov is the U.S. government's official web portal to all federal, state and local government web resources and services.